OMAA/AUH METAR and TAF weather

Enter ICAO airport designator
Station Type Date Time Source
OMAA METAR 2021/09/24 03:00 UTC NOAA

OMAA 240300Z 08004KT CAVOK 29/23 Q1004 NOSIG


Station Type Date Time Source
OMAA Decoded METAR 2021/09/24 03:00 UTC NOAA

Abu Dhabi International Airport, United Arab Emirates (OMAA) 24-26N 054-39E 27M
Sep 23, 2021 - 11:00 PM EDT / 2021.09.24 0300 UTC
Wind: from the E (080 degrees) at 5 MPH (4 KT):0
Visibility: greater than 7 mile(s):0
Temperature: 84 F (29 C)
Dew Point: 73 F (23 C)
Relative Humidity: 70%
Pressure (altimeter): 29.65 in. Hg (1004 hPa)
ob: OMAA 240300Z 08004KT CAVOK 29/23 Q1004 NOSIG
cycle: 3

Station Type Date Time Source
OMAA TAF 2021/09/23 18:28 UTC NOAA

TAF OMAA 231700Z 2318/2500 36005KT 8000 NSC
BECMG 2318/2320 06006KT
BECMG 2400/2402 18008KT
BECMG 2407/2409 34011KT

Example: see airport list